Hovedside
METAR-TAF:

METAR-TAF

Lufthavner :

Oljeplattform

Norne Fpso, Norge

breddegrad: 66-01-48N, lengdegrad: 008-04-48E, høyde over havet: 10 m

Gjeldene værobservasjon

Denne rapporten ble laget for 20 minutter siden, klokken 14:20 UTC
Vind 15 kt fra Sør-sørvest
Temperatur 15°C
Luftfuktighet 88%
Trykk 1010 hPa
Sikt 10 km eller mer
Spredte skyer i en høyde av 3500 ft

METAR: ENNE 181420Z 21015KT 9999 SCT035 15/13 Q1010 W///S3

Tid: 16:40 (14:40 UTC)

Varsel

Denne rapporten ble laget for 3 timer og 40 minutter siden, klokken 11:00 UTC
Varsel gyldig fra 18. klokken 12 UTC til 18. klokken 17 UTC
Vind 12 kt fra Sørøst
Sikt 10 km eller mer
Spredte skyer i en høyde av 4000 ft
Sannsynlighet 30%
fra 18. klokken 12 UTC til 18. klokken 15 UTC
Spredte skyer i en høyde av 3000 ft, Bygeskyer.
torden, regn
Blir
fra 18. klokken 12 UTC til 18. klokken 15 UTC
Vind 15 kt fra Sør-sørvest

TAF: ENNE 181100Z 1812/1817 13012KT 9999 SCT040 PROB30 1812/1815 TSRA SCT030CB BECMG 1812/1815 21015KT

Værobservasjoner og værvarsel for over 4000 flyplasser (METAR- og TAF-rapporter).

Tilgjengelige stasjoner er representert av de røde og gule prikkene på kartet.

Hold musepekeren over prikken for å se navnet på stasjonen.

Klikk så for å se værobservasjoner og -varsler.

For å forandre kartet kan du klikke på den grønne knappen med svart kryss for å zoome inn, på den grønne knappen med strek for å zoome ut, eller på de grønne pilene for å se tilstøtende kart.


METAR-TAF: